SWR878 LFPG-EGLL
Flight info
| Callsign | SWR878 |
|---|---|
| Flight time | 0h 43m |
| Altitude | 24000 |
| Route | OPALE DCT KESAX DCT DIMAL DCT ALESO |
| Aircraft | B77W/H-SDE1E2E3FGHIJ2J3J4J5M1RWXY/LB1D1 |
Departure
| Time | 2026-05-04 21:45 |
|---|---|
| Airport | Charles de Gaulle International Airport (LFPG) |
Arrival
| Time | 2026-05-04 22:28 |
|---|---|
| Airport | London Heathrow Airport (EGLL) |
| Time | Latitude | Longitude | Altitude | Speed | Heading |
|---|---|---|---|---|---|
| 2026-05-04 21:01 | 49.00127 | 2.57531 | 359 ft | 0 kts | 357° |
| 2026-05-04 21:33 | 49.00126 | 2.57531 | 359 ft | 2 kts | 357° |
| 2026-05-04 21:33 | 49.00109 | 2.57534 | 363 ft | 2 kts | 348° |
| 2026-05-04 21:34 | 49.00094 | 2.57541 | 359 ft | 2 kts | 336° |
| 2026-05-04 21:34 | 49.00079 | 2.57553 | 368 ft | 2 kts | 321° |
| 2026-05-04 21:34 | 49.00068 | 2.57571 | 365 ft | 2 kts | 302° |
| 2026-05-04 21:34 | 49.00061 | 2.57593 | 368 ft | 2 kts | 285° |
| 2026-05-04 21:35 | 49.00058 | 2.57618 | 367 ft | 2 kts | 273° |
| 2026-05-04 21:35 | 49.00057 | 2.57635 | 365 ft | 1 kts | 268° |
| 2026-05-04 21:35 | 49.00057 | 2.57639 | 365 ft | 0 kts | 267° |
| 2026-05-04 21:39 | 49.00058 | 2.57636 | 359 ft | 2 kts | 272° |
| 2026-05-04 21:39 | 49.00088 | 2.57624 | 364 ft | 6 kts | 33° |
| 2026-05-04 21:39 | 49.00080 | 2.57681 | 365 ft | 6 kts | 123° |
| 2026-05-04 21:40 | 49.00064 | 2.57758 | 366 ft | 11 kts | 92° |
| 2026-05-04 21:40 | 49.00072 | 2.57922 | 361 ft | 19 kts | 85° |
| 2026-05-04 21:40 | 49.00084 | 2.58130 | 364 ft | 20 kts | 85° |
| 2026-05-04 21:40 | 49.00077 | 2.58288 | 366 ft | 12 kts | 120° |
| 2026-05-04 21:41 | 49.00017 | 2.58302 | 363 ft | 10 kts | 228° |
| 2026-05-04 21:41 | 49.00005 | 2.58189 | 360 ft | 11 kts | 265° |
| 2026-05-04 21:41 | 48.99998 | 2.58038 | 358 ft | 20 kts | 265° |
| 2026-05-04 21:41 | 48.99985 | 2.57796 | 364 ft | 23 kts | 265° |
| 2026-05-04 21:42 | 48.99972 | 2.57562 | 361 ft | 22 kts | 265° |
| 2026-05-04 21:42 | 48.99961 | 2.57331 | 362 ft | 22 kts | 266° |
| 2026-05-04 21:42 | 48.99948 | 2.57106 | 364 ft | 17 kts | 265° |
| 2026-05-04 21:42 | 48.99938 | 2.56922 | 359 ft | 17 kts | 265° |
| 2026-05-04 21:43 | 48.99928 | 2.56738 | 365 ft | 17 kts | 265° |
| 2026-05-04 21:43 | 48.99918 | 2.56554 | 365 ft | 17 kts | 265° |
| 2026-05-04 21:43 | 48.99908 | 2.56371 | 361 ft | 17 kts | 265° |
| 2026-05-04 21:43 | 48.99898 | 2.56188 | 361 ft | 17 kts | 265° |
| 2026-05-04 21:44 | 48.99865 | 2.56038 | 365 ft | 12 kts | 213° |
| 2026-05-04 21:44 | 48.99803 | 2.55949 | 364 ft | 13 kts | 253° |
| 2026-05-04 21:44 | 48.99759 | 2.55826 | 367 ft | 14 kts | 213° |
| 2026-05-04 21:44 | 48.99657 | 2.55819 | 355 ft | 15 kts | 176° |
| 2026-05-04 21:45 | 48.99604 | 2.55879 | 362 ft | 11 kts | 89° |
| 2026-05-04 21:45 | 48.99615 | 2.56119 | 363 ft | 55 kts | 85° |
| 2026-05-04 21:45 | 48.99680 | 2.57385 | 370 ft | 183 kts | 85° |
| 2026-05-04 21:45 | 48.99780 | 2.59662 | 1291 ft | 236 kts | 85° |
| 2026-05-04 21:46 | 48.99914 | 2.62272 | 3085 ft | 250 kts | 84° |
| 2026-05-04 21:46 | 49.00043 | 2.64627 | 4403 ft | 210 kts | 85° |
| 2026-05-04 21:46 | 49.00164 | 2.66750 | 5643 ft | 194 kts | 85° |
| 2026-05-04 21:46 | 49.00278 | 2.68742 | 6677 ft | 188 kts | 85° |
| 2026-05-04 21:47 | 49.00397 | 2.70870 | 7117 ft | 218 kts | 85° |
| 2026-05-04 21:47 | 49.00532 | 2.73366 | 7440 ft | 253 kts | 84° |
| 2026-05-04 21:47 | 49.01190 | 2.75970 | 7971 ft | 276 kts | 50° |
| 2026-05-04 21:47 | 49.02786 | 2.77618 | 8980 ft | 285 kts | 17° |
| 2026-05-04 21:48 | 49.04769 | 2.77875 | 10091 ft | 291 kts | 350° |
| 2026-05-04 21:48 | 49.06732 | 2.76860 | 10872 ft | 310 kts | 334° |
| 2026-05-04 21:48 | 49.08689 | 2.75097 | 11207 ft | 345 kts | 327° |
| 2026-05-04 21:48 | 49.10718 | 2.72959 | 11705 ft | 368 kts | 324° |
| 2026-05-04 21:49 | 49.12856 | 2.70614 | 12745 ft | 377 kts | 324° |
| 2026-05-04 21:49 | 49.14977 | 2.68290 | 13895 ft | 383 kts | 324° |
| 2026-05-04 21:49 | 49.17170 | 2.65914 | 14958 ft | 388 kts | 324° |
| 2026-05-04 21:49 | 49.19397 | 2.63528 | 15995 ft | 394 kts | 325° |
| 2026-05-04 21:50 | 49.21673 | 2.61115 | 17045 ft | 401 kts | 325° |
| 2026-05-04 21:50 | 49.23985 | 2.58680 | 18124 ft | 406 kts | 325° |
| 2026-05-04 21:50 | 49.26311 | 2.56173 | 19056 ft | 412 kts | 323° |
| 2026-05-04 21:50 | 49.28641 | 2.53564 | 19949 ft | 418 kts | 323° |
| 2026-05-04 21:51 | 49.31014 | 2.50926 | 20841 ft | 424 kts | 323° |
| 2026-05-04 21:51 | 49.33441 | 2.48283 | 21698 ft | 431 kts | 324° |
| 2026-05-04 21:51 | 49.35915 | 2.45641 | 22554 ft | 437 kts | 324° |
| 2026-05-04 21:51 | 49.38450 | 2.42967 | 23396 ft | 444 kts | 325° |
| 2026-05-04 21:52 | 49.41001 | 2.40297 | 24127 ft | 449 kts | 324° |
| 2026-05-04 21:52 | 49.43578 | 2.37605 | 25048 ft | 448 kts | 324° |
| 2026-05-04 21:52 | 49.46147 | 2.34923 | 26075 ft | 444 kts | 324° |
| 2026-05-04 21:52 | 49.48696 | 2.32258 | 27127 ft | 442 kts | 323° |
| 2026-05-04 21:53 | 49.51242 | 2.29590 | 27854 ft | 443 kts | 323° |
| 2026-05-04 21:53 | 49.53785 | 2.26919 | 27977 ft | 443 kts | 323° |
| 2026-05-04 21:53 | 49.56321 | 2.24251 | 27967 ft | 438 kts | 323° |
| 2026-05-04 21:53 | 49.58832 | 2.21605 | 27974 ft | 437 kts | 323° |
| 2026-05-04 21:54 | 49.61348 | 2.18951 | 27961 ft | 439 kts | 323° |
| 2026-05-04 21:54 | 49.63866 | 2.16289 | 27980 ft | 440 kts | 323° |
| 2026-05-04 21:54 | 49.66397 | 2.13612 | 27977 ft | 441 kts | 323° |
| 2026-05-04 21:54 | 49.68930 | 2.10930 | 27978 ft | 442 kts | 323° |
| 2026-05-04 21:55 | 49.71469 | 2.08238 | 27963 ft | 442 kts | 323° |
| 2026-05-04 21:55 | 49.74004 | 2.05546 | 27962 ft | 441 kts | 323° |
| 2026-05-04 21:55 | 49.76492 | 2.02903 | 27958 ft | 436 kts | 323° |
| 2026-05-04 21:55 | 49.79013 | 2.00221 | 27965 ft | 434 kts | 323° |
| 2026-05-04 21:56 | 49.81473 | 1.97598 | 27986 ft | 434 kts | 323° |
| 2026-05-04 21:56 | 49.83969 | 1.94933 | 27967 ft | 435 kts | 323° |
| 2026-05-04 21:56 | 49.86459 | 1.92273 | 27983 ft | 435 kts | 323° |
| 2026-05-04 21:56 | 49.88956 | 1.89603 | 27970 ft | 436 kts | 323° |
| 2026-05-04 21:57 | 49.91413 | 1.86827 | 27973 ft | 435 kts | 320° |
| 2026-05-04 21:57 | 49.93788 | 1.83926 | 27992 ft | 435 kts | 319° |
| 2026-05-04 21:57 | 49.96150 | 1.80979 | 27987 ft | 435 kts | 319° |
| 2026-05-04 21:57 | 49.98509 | 1.78031 | 27987 ft | 435 kts | 319° |
| 2026-05-04 21:58 | 50.00878 | 1.75092 | 27982 ft | 435 kts | 319° |
| 2026-05-04 21:58 | 50.03246 | 1.72166 | 27981 ft | 435 kts | 319° |
| 2026-05-04 21:58 | 50.05627 | 1.69270 | 27984 ft | 435 kts | 322° |
| 2026-05-04 21:58 | 50.08159 | 1.66677 | 27989 ft | 436 kts | 328° |
| 2026-05-04 21:59 | 50.10825 | 1.64551 | 27986 ft | 437 kts | 333° |
| 2026-05-04 21:59 | 50.13594 | 1.62569 | 27986 ft | 437 kts | 333° |
| 2026-05-04 21:59 | 50.16362 | 1.60611 | 27990 ft | 436 kts | 333° |
| 2026-05-04 21:59 | 50.19130 | 1.58643 | 27993 ft | 436 kts | 333° |
| 2026-05-04 22:00 | 50.21891 | 1.56662 | 27990 ft | 436 kts | 333° |
| 2026-05-04 22:00 | 50.24646 | 1.54669 | 27995 ft | 436 kts | 333° |
| 2026-05-04 22:00 | 50.27394 | 1.52669 | 27997 ft | 436 kts | 333° |
| 2026-05-04 22:00 | 50.30143 | 1.50661 | 27998 ft | 436 kts | 333° |
| 2026-05-04 22:01 | 50.32896 | 1.48648 | 27998 ft | 436 kts | 333° |
| 2026-05-04 22:01 | 50.35646 | 1.46634 | 27996 ft | 437 kts | 333° |
| 2026-05-04 22:01 | 50.38401 | 1.44614 | 27996 ft | 437 kts | 333° |
| 2026-05-04 22:01 | 50.41152 | 1.42596 | 27996 ft | 437 kts | 333° |
| 2026-05-04 22:02 | 50.43903 | 1.40575 | 27997 ft | 437 kts | 333° |
| 2026-05-04 22:02 | 50.49137 | 1.35925 | 28006 ft | 433 kts | 321° |
| 2026-05-04 22:03 | 50.53550 | 1.29550 | 28003 ft | 429 kts | 309° |
| 2026-05-04 22:03 | 50.57563 | 1.22548 | 27612 ft | 435 kts | 310° |
| 2026-05-04 22:03 | 50.59630 | 1.19114 | 27096 ft | 435 kts | 312° |
| 2026-05-04 22:04 | 50.61762 | 1.15753 | 26592 ft | 431 kts | 313° |
| 2026-05-04 22:04 | 50.63889 | 1.12454 | 26087 ft | 427 kts | 313° |
| 2026-05-04 22:04 | 50.65993 | 1.09184 | 25602 ft | 422 kts | 313° |
| 2026-05-04 22:04 | 50.68071 | 1.05930 | 25112 ft | 418 kts | 313° |
| 2026-05-04 22:05 | 50.70122 | 1.02696 | 24623 ft | 415 kts | 313° |
| 2026-05-04 22:05 | 50.71473 | 1.00555 | 24306 ft | 413 kts | 313° |
| 2026-05-04 22:05 | 50.73488 | 0.97353 | 23851 ft | 410 kts | 314° |
| 2026-05-04 22:05 | 50.76137 | 0.93136 | 23154 ft | 406 kts | 314° |
| 2026-05-04 22:06 | 50.78117 | 0.89981 | 22626 ft | 403 kts | 314° |
| 2026-05-04 22:06 | 50.79451 | 0.87851 | 22305 ft | 401 kts | 314° |
| 2026-05-04 22:06 | 50.82033 | 0.83724 | 21670 ft | 396 kts | 314° |
| 2026-05-04 22:06 | 50.83965 | 0.80634 | 21207 ft | 393 kts | 314° |
| 2026-05-04 22:07 | 50.85236 | 0.78601 | 20881 ft | 392 kts | 314° |
| 2026-05-04 22:07 | 50.87144 | 0.75539 | 20434 ft | 389 kts | 314° |
| 2026-05-04 22:07 | 50.89042 | 0.72491 | 19974 ft | 386 kts | 313° |
| 2026-05-04 22:07 | 50.90922 | 0.69467 | 19522 ft | 384 kts | 314° |
| 2026-05-04 22:08 | 50.92796 | 0.66454 | 19052 ft | 382 kts | 314° |
| 2026-05-04 22:08 | 50.94661 | 0.63449 | 18577 ft | 380 kts | 314° |
| 2026-05-04 22:08 | 50.96513 | 0.60461 | 18104 ft | 379 kts | 314° |
| 2026-05-04 22:08 | 50.98360 | 0.57479 | 17482 ft | 379 kts | 314° |
| 2026-05-04 22:09 | 51.00185 | 0.54528 | 16924 ft | 379 kts | 314° |
| 2026-05-04 22:09 | 51.02027 | 0.51544 | 16349 ft | 379 kts | 314° |
| 2026-05-04 22:09 | 51.03873 | 0.48554 | 15791 ft | 378 kts | 314° |
| 2026-05-04 22:09 | 51.05711 | 0.45570 | 15231 ft | 377 kts | 315° |
| 2026-05-04 22:10 | 51.07558 | 0.42594 | 14671 ft | 377 kts | 316° |
| 2026-05-04 22:10 | 51.09447 | 0.39694 | 14124 ft | 376 kts | 317° |
| 2026-05-04 22:10 | 51.11351 | 0.36824 | 13546 ft | 376 kts | 317° |
| 2026-05-04 22:10 | 51.13247 | 0.33966 | 12929 ft | 375 kts | 317° |
| 2026-05-04 22:11 | 51.15138 | 0.31094 | 12363 ft | 373 kts | 317° |
| 2026-05-04 22:11 | 51.17007 | 0.28237 | 11807 ft | 371 kts | 316° |
| 2026-05-04 22:11 | 51.18860 | 0.25396 | 11260 ft | 367 kts | 316° |
| 2026-05-04 22:11 | 51.20608 | 0.22714 | 10712 ft | 339 kts | 316° |
| 2026-05-04 22:12 | 51.22249 | 0.20192 | 10229 ft | 315 kts | 316° |
| 2026-05-04 22:12 | 51.23778 | 0.17841 | 9793 ft | 293 kts | 316° |
| 2026-05-04 22:12 | 51.25219 | 0.15625 | 9385 ft | 288 kts | 316° |
| 2026-05-04 22:12 | 51.26651 | 0.13420 | 8916 ft | 282 kts | 316° |
| 2026-05-04 22:13 | 51.28024 | 0.11304 | 8489 ft | 272 kts | 316° |
| 2026-05-04 22:13 | 51.29367 | 0.09233 | 8110 ft | 268 kts | 316° |
| 2026-05-04 22:13 | 51.30709 | 0.07162 | 7793 ft | 267 kts | 316° |
| 2026-05-04 22:13 | 51.32024 | 0.05130 | 7362 ft | 260 kts | 316° |
| 2026-05-04 22:14 | 51.33070 | 0.02887 | 7075 ft | 246 kts | 288° |
| 2026-05-04 22:14 | 51.33299 | 0.00226 | 7086 ft | 245 kts | 274° |
| 2026-05-04 22:14 | 51.33434 | -0.02525 | 7039 ft | 249 kts | 275° |
| 2026-05-04 22:14 | 51.33583 | -0.05256 | 7034 ft | 244 kts | 275° |
| 2026-05-04 22:15 | 51.33730 | -0.07934 | 7034 ft | 239 kts | 275° |
| 2026-05-04 22:15 | 51.33874 | -0.10576 | 7045 ft | 238 kts | 275° |
| 2026-05-04 22:15 | 51.34017 | -0.13212 | 7052 ft | 237 kts | 275° |
| 2026-05-04 22:15 | 51.34160 | -0.15845 | 7036 ft | 237 kts | 275° |
| 2026-05-04 22:16 | 51.34302 | -0.18471 | 7049 ft | 237 kts | 275° |
| 2026-05-04 22:16 | 51.34443 | -0.21088 | 7085 ft | 235 kts | 275° |
| 2026-05-04 22:16 | 51.34584 | -0.23704 | 7069 ft | 237 kts | 275° |
| 2026-05-04 22:16 | 51.34725 | -0.26337 | 7063 ft | 238 kts | 275° |
| 2026-05-04 22:17 | 51.34866 | -0.28979 | 7044 ft | 239 kts | 275° |
| 2026-05-04 22:17 | 51.35007 | -0.31628 | 7048 ft | 239 kts | 275° |
| 2026-05-04 22:17 | 51.35148 | -0.34284 | 7050 ft | 240 kts | 275° |
| 2026-05-04 22:17 | 51.35286 | -0.36902 | 7042 ft | 240 kts | 275° |
| 2026-05-04 22:18 | 51.35428 | -0.39594 | 7040 ft | 240 kts | 275° |
| 2026-05-04 22:18 | 51.35567 | -0.42248 | 7043 ft | 239 kts | 275° |
| 2026-05-04 22:18 | 51.35704 | -0.44884 | 7064 ft | 237 kts | 275° |
| 2026-05-04 22:18 | 51.35841 | -0.47515 | 7044 ft | 237 kts | 275° |
| 2026-05-04 22:19 | 51.35976 | -0.50137 | 7045 ft | 236 kts | 275° |
| 2026-05-04 22:19 | 51.36112 | -0.52767 | 7052 ft | 236 kts | 275° |
| 2026-05-04 22:19 | 51.36247 | -0.55390 | 7041 ft | 238 kts | 275° |
| 2026-05-04 22:19 | 51.36381 | -0.57998 | 7059 ft | 238 kts | 275° |
| 2026-05-04 22:20 | 51.36515 | -0.60649 | 7050 ft | 239 kts | 275° |
| 2026-05-04 22:20 | 51.36649 | -0.63306 | 7059 ft | 239 kts | 275° |
| 2026-05-04 22:20 | 51.36776 | -0.65956 | 7041 ft | 238 kts | 272° |
| 2026-05-04 22:20 | 51.36672 | -0.68664 | 6634 ft | 248 kts | 263° |
| 2026-05-04 22:21 | 51.36438 | -0.71394 | 6272 ft | 248 kts | 263° |
| 2026-05-04 22:21 | 51.36219 | -0.74123 | 5873 ft | 244 kts | 267° |
| 2026-05-04 22:21 | 51.36620 | -0.76666 | 5505 ft | 237 kts | 305° |
| 2026-05-04 22:21 | 51.37861 | -0.78309 | 5223 ft | 232 kts | 337° |
| 2026-05-04 22:22 | 51.39426 | -0.78761 | 4927 ft | 228 kts | 358° |
| 2026-05-04 22:22 | 51.41015 | -0.78783 | 4608 ft | 229 kts | 0° |
| 2026-05-04 22:22 | 51.42592 | -0.78775 | 4280 ft | 229 kts | 0° |
| 2026-05-04 22:22 | 51.44173 | -0.78778 | 3996 ft | 225 kts | 1° |
| 2026-05-04 22:23 | 51.45691 | -0.78794 | 3643 ft | 211 kts | 0° |
| 2026-05-04 22:23 | 51.47105 | -0.78786 | 3339 ft | 195 kts | 8° |
| 2026-05-04 22:23 | 51.48218 | -0.77936 | 3227 ft | 171 kts | 52° |
| 2026-05-04 22:23 | 51.48602 | -0.76143 | 3206 ft | 178 kts | 91° |
| 2026-05-04 22:24 | 51.48119 | -0.74342 | 3067 ft | 177 kts | 130° |
| 2026-05-04 22:24 | 51.47324 | -0.72893 | 2994 ft | 170 kts | 113° |
| 2026-05-04 22:24 | 51.47234 | -0.71042 | 2906 ft | 171 kts | 78° |
| 2026-05-04 22:24 | 51.47429 | -0.69195 | 2675 ft | 168 kts | 82° |
| 2026-05-04 22:25 | 51.47554 | -0.67387 | 2437 ft | 153 kts | 84° |
| 2026-05-04 22:25 | 51.47604 | -0.65731 | 2262 ft | 149 kts | 86° |
| 2026-05-04 22:25 | 51.47627 | -0.64061 | 2042 ft | 149 kts | 87° |
| 2026-05-04 22:25 | 51.47640 | -0.62406 | 1841 ft | 149 kts | 87° |
| 2026-05-04 22:26 | 51.47653 | -0.60754 | 1641 ft | 150 kts | 88° |
| 2026-05-04 22:26 | 51.47663 | -0.59076 | 1425 ft | 149 kts | 87° |
| 2026-05-04 22:26 | 51.47673 | -0.57423 | 1219 ft | 148 kts | 87° |
| 2026-05-04 22:26 | 51.47689 | -0.55768 | 1017 ft | 149 kts | 86° |
| 2026-05-04 22:27 | 51.47699 | -0.54078 | 790 ft | 153 kts | 87° |
| 2026-05-04 22:27 | 51.47717 | -0.52375 | 568 ft | 151 kts | 86° |
| 2026-05-04 22:27 | 51.47729 | -0.50695 | 377 ft | 149 kts | 86° |
| 2026-05-04 22:27 | 51.47742 | -0.49056 | 208 ft | 150 kts | 87° |
| 2026-05-04 22:28 | 51.47748 | -0.47363 | 90 ft | 143 kts | 87° |
| 2026-05-04 22:28 | 51.47758 | -0.45965 | 92 ft | 104 kts | 90° |
| 2026-05-04 22:28 | 51.47761 | -0.45060 | 97 ft | 61 kts | 89° |
| 2026-05-04 22:28 | 51.47754 | -0.44614 | 98 ft | 33 kts | 101° |
| 2026-05-04 22:29 | 51.47686 | -0.44339 | 97 ft | 18 kts | 114° |
| 2026-05-04 22:29 | 51.47665 | -0.44278 | 96 ft | 0 kts | 133° |
| 2026-05-04 22:30 | 51.47664 | -0.44277 | 96 ft | 1 kts | 133° |
| 2026-05-04 22:31 | 51.47651 | -0.44262 | 95 ft | 4 kts | 148° |
| 2026-05-04 22:31 | 51.47621 | -0.44257 | 95 ft | 5 kts | 202° |
| 2026-05-04 22:31 | 51.47605 | -0.44313 | 93 ft | 6 kts | 260° |
| 2026-05-04 22:31 | 51.47601 | -0.44386 | 92 ft | 7 kts | 266° |
| 2026-05-04 22:32 | 51.47602 | -0.44473 | 93 ft | 9 kts | 271° |
| 2026-05-04 22:32 | 51.47602 | -0.44573 | 93 ft | 9 kts | 270° |
| 2026-05-04 22:32 | 51.47578 | -0.44648 | 95 ft | 8 kts | 212° |
| 2026-05-04 22:32 | 51.47522 | -0.44644 | 96 ft | 9 kts | 135° |
| 2026-05-04 22:33 | 51.47472 | -0.44572 | 97 ft | 11 kts | 158° |
| 2026-05-04 22:33 | 51.47450 | -0.44565 | 95 ft | 0 kts | 172° |
| 2026-05-04 22:33 | 51.47449 | -0.44565 | 95 ft | 1 kts | 172° |
| 2026-05-04 22:33 | 51.47421 | -0.44559 | 93 ft | 8 kts | 173° |
| 2026-05-04 22:34 | 51.47343 | -0.44557 | 90 ft | 14 kts | 179° |
| 2026-05-04 22:34 | 51.47237 | -0.44556 | 91 ft | 16 kts | 180° |
| 2026-05-04 22:34 | 51.47123 | -0.44561 | 90 ft | 17 kts | 193° |
| 2026-05-04 22:34 | 51.47007 | -0.44560 | 93 ft | 17 kts | 172° |
| 2026-05-04 22:35 | 51.46945 | -0.44589 | 96 ft | 7 kts | 237° |
| 2026-05-04 22:35 | 51.46938 | -0.44674 | 93 ft | 9 kts | 270° |
| 2026-05-04 22:35 | 51.46938 | -0.44705 | 93 ft | 0 kts | 270° |